createdAt,value
2023-03-29T00:00:14.638Z,5.45
2023-03-29T00:03:04.128Z,5.35
2023-03-29T00:05:57.570Z,5.18
2023-03-29T00:08:47.305Z,5.10
2023-03-29T00:11:34.528Z,5.63
2023-03-29T00:14:21.729Z,5.45
2023-03-29T00:17:12.895Z,5.50
2023-03-29T00:20:00.307Z,5.45
2023-03-29T00:22:50.442Z,5.50
2023-03-29T00:25:37.637Z,5.38
2023-03-29T00:28:30.600Z,6.18
2023-03-29T00:31:18.765Z,6.00
2023-03-29T00:34:07.385Z,5.90
2023-03-29T00:36:57.988Z,6.50
2023-03-29T00:39:46.806Z,6.88
2023-03-29T00:42:33.983Z,5.60
2023-03-29T00:45:30.620Z,5.90
2023-03-29T00:48:27.167Z,6.30
2023-03-29T00:51:19.150Z,5.68
2023-03-29T00:54:15.355Z,5.30
2023-03-29T00:57:04.056Z,5.60
2023-03-29T00:59:53.083Z,5.53
2023-03-29T01:02:42.393Z,5.45
2023-03-29T01:05:37.854Z,5.13
2023-03-29T01:08:29.390Z,6.20
2023-03-29T01:11:44.064Z,6.68
2023-03-29T01:14:42.979Z,5.97
2023-03-29T01:17:35.018Z,5.82
2023-03-29T01:20:37.121Z,4.63
2023-03-29T01:23:47.293Z,6.25
2023-03-29T01:27:03.618Z,6.57
2023-03-29T01:30:01.250Z,6.05
2023-03-29T01:32:59.227Z,5.22
2023-03-29T01:36:05.270Z,5.80
2023-03-29T01:39:03.684Z,6.40
2023-03-29T01:42:06.022Z,6.20
2023-03-29T01:45:19.108Z,4.97
2023-03-29T01:51:30.302Z,6.50
2023-03-29T01:54:36.714Z,6.22
2023-03-29T01:57:26.279Z,5.70
2023-03-29T02:00:22.359Z,6.03
2023-03-29T02:03:10.634Z,5.88
2023-03-29T02:05:59.453Z,5.28
2023-03-29T02:08:47.568Z,5.38
2023-03-29T02:11:36.888Z,4.78
2023-03-29T02:14:25.588Z,3.92
2023-03-29T02:17:19.994Z,4.70
2023-03-29T02:20:19.105Z,3.92
2023-03-29T02:23:27.332Z,3.85
2023-03-29T02:26:14.890Z,3.83
2023-03-29T02:29:03.989Z,3.70
2023-03-29T02:31:59.907Z,3.33
2023-03-29T02:34:59.125Z,3.28
2023-03-29T02:37:52.226Z,3.22
2023-03-29T02:40:42.177Z,2.50
2023-03-29T02:43:29.985Z,3.03
2023-03-29T02:46:19.278Z,2.80
2023-03-29T02:49:06.730Z,2.65
2023-03-29T02:51:59.225Z,2.78
2023-03-29T02:54:50.353Z,2.80
2023-03-29T02:57:39.617Z,2.55
2023-03-29T03:00:29.877Z,2.78
2023-03-29T03:03:19.300Z,2.58
2023-03-29T03:06:06.719Z,2.47
2023-03-29T03:08:56.868Z,2.17
2023-03-29T03:11:44.343Z,2.33
2023-03-29T03:14:31.578Z,2.45
2023-03-29T03:17:23.247Z,2.10
2023-03-29T03:20:15.133Z,2.10
2023-03-29T03:23:03.529Z,2.40
2023-03-29T03:25:52.606Z,2.10
2023-03-29T03:28:41.852Z,2.08
2023-03-29T03:31:34.254Z,2.00
2023-03-29T03:34:22.506Z,2.38
2023-03-29T03:37:12.983Z,2.20
2023-03-29T03:40:00.714Z,1.95
2023-03-29T03:42:48.045Z,1.98
2023-03-29T03:45:35.571Z,2.42
2023-03-29T03:48:23.860Z,2.13
2023-03-29T03:51:11.134Z,1.92
2023-03-29T03:53:58.258Z,2.22
2023-03-29T03:56:45.406Z,2.00
2023-03-29T03:59:32.733Z,1.95
2023-03-29T04:02:20.668Z,1.90
2023-03-29T04:05:08.869Z,2.17
2023-03-29T04:07:56.162Z,1.80
2023-03-29T04:10:51.441Z,2.25
2023-03-29T04:13:38.546Z,1.80
2023-03-29T04:16:26.779Z,2.00
2023-03-29T04:19:14.395Z,1.90
2023-03-29T04:22:01.692Z,2.35
2023-03-29T04:24:48.863Z,1.83
2023-03-29T04:27:36.908Z,1.80
2023-03-29T04:30:24.191Z,2.00
2023-03-29T04:33:11.492Z,1.83
2023-03-29T04:35:59.979Z,2.00
2023-03-29T04:38:52.284Z,2.00
2023-03-29T04:41:39.515Z,1.90
2023-03-29T04:44:29.135Z,1.58
2023-03-29T04:47:19.605Z,1.58
2023-03-29T04:50:08.381Z,1.73
2023-03-29T04:53:00.251Z,2.00
2023-03-29T04:55:47.892Z,1.92
2023-03-29T04:58:35.186Z,2.03
2023-03-29T05:01:22.308Z,1.75
2023-03-29T05:04:12.886Z,2.45
2023-03-29T05:07:01.653Z,2.20
2023-03-29T05:09:48.948Z,2.40
2023-03-29T05:12:36.724Z,1.92
2023-03-29T05:15:23.960Z,2.10
2023-03-29T05:18:13.610Z,2.05
2023-03-29T05:21:00.994Z,1.75
2023-03-29T05:23:49.009Z,1.77
2023-03-29T05:26:36.237Z,2.03
2023-03-29T05:29:23.545Z,1.88
2023-03-29T05:32:11.572Z,2.10
2023-03-29T05:34:58.845Z,1.83
2023-03-29T05:37:47.469Z,1.98
2023-03-29T05:40:37.784Z,1.98
2023-03-29T05:43:25.014Z,1.95
2023-03-29T05:46:18.703Z,2.63
2023-03-29T05:49:06.558Z,2.00
2023-03-29T05:51:57.246Z,2.20
2023-03-29T05:54:44.424Z,2.00
2023-03-29T05:57:31.797Z,1.83
2023-03-29T06:00:21.927Z,1.60
2023-03-29T06:03:21.377Z,2.10
2023-03-29T06:06:27.240Z,1.58
2023-03-29T06:09:21.410Z,2.00
2023-03-29T06:12:09.036Z,1.80
2023-03-29T06:14:58.369Z,1.85
2023-03-29T06:17:46.031Z,2.00
2023-03-29T06:20:33.454Z,2.20
2023-03-29T06:23:23.362Z,2.05
2023-03-29T06:26:13.074Z,1.70
2023-03-29T06:29:04.338Z,2.53
2023-03-29T06:34:40.100Z,1.95
2023-03-29T06:37:27.526Z,2.28
2023-03-29T06:40:17.530Z,2.10
2023-03-29T06:43:05.494Z,1.73
2023-03-29T06:45:54.316Z,1.70
2023-03-29T06:48:41.614Z,1.77
2023-03-29T06:51:31.437Z,1.73
2023-03-29T06:54:18.911Z,2.50
2023-03-29T06:57:06.253Z,1.80
2023-03-29T06:59:54.131Z,2.00
2023-03-29T07:02:43.652Z,2.20
2023-03-29T07:05:32.949Z,2.45
2023-03-29T07:08:22.645Z,2.20
2023-03-29T07:11:14.828Z,1.88
2023-03-29T07:14:03.261Z,2.72
2023-03-29T07:16:51.930Z,2.30
2023-03-29T07:19:39.558Z,2.25
2023-03-29T07:22:27.223Z,2.30
2023-03-29T07:25:17.891Z,1.60
2023-03-29T07:28:06.232Z,1.65
2023-03-29T07:34:31.588Z,2.20
2023-03-29T07:37:25.896Z,2.22
2023-03-29T07:40:19.875Z,2.42
2023-03-29T07:43:09.512Z,1.75
2023-03-29T07:46:00.963Z,1.75
2023-03-29T07:48:51.409Z,1.95
2023-03-29T07:51:40.176Z,1.52
2023-03-29T07:54:27.348Z,2.10
2023-03-29T07:57:14.994Z,1.85
2023-03-29T08:00:15.894Z,2.25
2023-03-29T08:03:08.394Z,2.17
2023-03-29T08:05:55.842Z,1.52
2023-03-29T08:08:43.259Z,3.08
2023-03-29T08:11:30.785Z,2.42
2023-03-29T08:14:18.207Z,1.80
2023-03-29T08:17:07.067Z,4.10
2023-03-29T08:19:57.173Z,2.90
2023-03-29T08:22:44.537Z,2.92
2023-03-29T08:25:32.400Z,2.25
2023-03-29T08:28:20.921Z,1.90
2023-03-29T08:31:22.133Z,1.77
2023-03-29T08:34:09.353Z,1.73
2023-03-29T08:36:59.549Z,1.90
2023-03-29T08:39:48.617Z,1.85
2023-03-29T08:42:57.210Z,1.65
2023-03-29T08:46:06.197Z,1.95
2023-03-29T08:49:05.079Z,1.95
2023-03-29T08:51:59.886Z,2.00
2023-03-29T08:54:51.110Z,1.77
2023-03-29T08:57:51.874Z,1.85
2023-03-29T09:00:50.999Z,2.10
2023-03-29T09:04:19.083Z,2.15
2023-03-29T09:07:11.785Z,2.25
2023-03-29T09:13:15.037Z,1.80
2023-03-29T09:16:07.820Z,1.70
2023-03-29T09:22:25.435Z,2.13
2023-03-29T09:25:26.470Z,2.17
2023-03-29T09:28:14.885Z,1.95
2023-03-29T09:31:06.542Z,1.75
2023-03-29T09:34:17.843Z,1.80
2023-03-29T09:37:21.514Z,1.83
2023-03-29T09:40:21.135Z,1.92
2023-03-29T09:43:16.205Z,1.75
2023-03-29T09:46:16.586Z,1.77
2023-03-29T09:49:10.609Z,2.60
2023-03-29T09:52:06.837Z,1.75
2023-03-29T09:54:57.231Z,1.63
2023-03-29T09:57:46.562Z,1.70
2023-03-29T10:00:34.284Z,1.70
2023-03-29T10:03:27.489Z,2.17
2023-03-29T10:06:16.720Z,1.70
2023-03-29T10:09:05.051Z,1.50
2023-03-29T10:11:55.383Z,1.77
2023-03-29T10:14:54.007Z,1.80
2023-03-29T10:17:42.920Z,1.58
2023-03-29T10:20:30.445Z,2.25
2023-03-29T10:23:18.772Z,1.55
2023-03-29T10:26:09.499Z,1.63
2023-03-29T10:29:00.344Z,2.15
2023-03-29T10:31:49.999Z,1.55
2023-03-29T10:34:45.377Z,1.60
2023-03-29T10:37:32.560Z,1.92
2023-03-29T10:40:25.610Z,1.67
2023-03-29T10:43:35.115Z,1.70
2023-03-29T10:46:31.136Z,1.40
2023-03-29T10:49:21.245Z,2.05
2023-03-29T10:52:09.538Z,1.75
2023-03-29T10:55:00.157Z,1.88
2023-03-29T10:58:03.091Z,1.40
2023-03-29T11:04:04.396Z,1.70
2023-03-29T11:07:06.055Z,1.58
2023-03-29T11:10:02.272Z,1.70
2023-03-29T11:13:22.394Z,1.50
2023-03-29T11:16:22.305Z,1.40
2023-03-29T11:19:24.944Z,1.80
2023-03-29T11:22:23.074Z,1.48
2023-03-29T11:25:23.582Z,1.05
2023-03-29T11:28:43.648Z,1.40
2023-03-29T11:31:58.286Z,1.38
2023-03-29T11:34:54.788Z,1.40
2023-03-29T11:38:08.189Z,1.13
2023-03-29T11:41:19.066Z,1.63
2023-03-29T11:44:24.515Z,1.50
2023-03-29T11:47:17.214Z,1.20
2023-03-29T11:53:22.728Z,1.27
2023-03-29T11:56:23.470Z,1.17
2023-03-29T11:59:27.756Z,1.15
2023-03-29T12:02:31.764Z,1.27
2023-03-29T12:05:34.742Z,1.17
2023-03-29T12:11:39.603Z,1.67
2023-03-29T12:14:41.221Z,9.85
2023-03-29T12:17:33.051Z,1.80
2023-03-29T12:20:31.657Z,1.90
2023-03-29T12:23:21.710Z,1.27
2023-03-29T12:26:25.623Z,1.23
2023-03-29T12:29:31.442Z,1.20
2023-03-29T12:32:33.247Z,1.23
2023-03-29T12:35:47.029Z,1.42
2023-03-29T12:38:35.984Z,1.38
2023-03-29T12:41:24.773Z,1.42
2023-03-29T12:44:20.475Z,1.38
2023-03-29T12:47:27.561Z,1.20
2023-03-29T12:50:29.103Z,1.55
2023-03-29T12:53:35.705Z,1.30
2023-03-29T12:56:57.028Z,2.45
2023-03-29T13:00:36.622Z,1.73
2023-03-29T13:04:10.770Z,1.65
2023-03-29T13:07:20.139Z,1.60
2023-03-29T13:10:31.605Z,3.22
2023-03-29T13:13:25.555Z,1.65
2023-03-29T13:16:24.630Z,1.73
2023-03-29T13:19:15.034Z,1.20
2023-03-29T13:22:36.075Z,1.58
2023-03-29T13:25:51.573Z,2.03
2023-03-29T13:29:00.232Z,1.80
2023-03-29T13:31:53.662Z,1.23
2023-03-29T13:34:59.431Z,1.60
2023-03-29T13:38:21.803Z,2.10
2023-03-29T13:41:31.975Z,1.70
2023-03-29T13:44:46.497Z,1.52
2023-03-29T13:47:34.360Z,1.70
2023-03-29T13:50:36.368Z,1.40
2023-03-29T13:53:41.069Z,1.77
2023-03-29T13:56:48.443Z,1.60
2023-03-29T13:59:59.959Z,1.98
2023-03-29T14:06:02.842Z,1.38
2023-03-29T14:08:51.683Z,1.67
2023-03-29T14:11:43.768Z,1.70
2023-03-29T14:14:33.036Z,1.55
2023-03-29T14:17:23.162Z,1.40
2023-03-29T14:20:16.238Z,1.48
2023-03-29T14:23:15.626Z,1.50
2023-03-29T14:26:19.037Z,1.30
2023-03-29T14:31:54.991Z,1.20
2023-03-29T14:34:42.835Z,1.60
2023-03-29T14:37:33.009Z,1.48
2023-03-29T14:40:22.100Z,1.50
2023-03-29T14:43:11.441Z,1.30
2023-03-29T14:46:01.260Z,1.50
2023-03-29T14:48:49.228Z,1.63
2023-03-29T14:51:37.426Z,2.10
2023-03-29T14:54:28.661Z,1.30
2023-03-29T14:57:19.457Z,1.73
2023-03-29T15:00:42.501Z,1.77
2023-03-29T15:03:30.959Z,1.02
2023-03-29T15:06:19.832Z,1.52
2023-03-29T15:09:10.313Z,1.30
2023-03-29T15:12:00.007Z,1.40
2023-03-29T15:14:52.775Z,1.38
2023-03-29T15:17:55.389Z,1.58
2023-03-29T15:20:44.981Z,1.70
2023-03-29T15:23:57.266Z,1.88
2023-03-29T15:26:44.585Z,1.40
2023-03-29T15:29:44.130Z,1.48
2023-03-29T15:32:48.127Z,1.27
2023-03-29T15:35:35.639Z,1.77
2023-03-29T15:38:30.236Z,1.50
2023-03-29T15:41:24.297Z,1.73
2023-03-29T15:44:15.111Z,1.80
2023-03-29T15:47:02.912Z,1.55
2023-03-29T15:49:50.660Z,1.48
2023-03-29T15:52:38.984Z,1.55
2023-03-29T15:55:29.557Z,2.00
2023-03-29T16:01:37.650Z,1.70
2023-03-29T16:04:26.115Z,1.60
2023-03-29T16:07:16.116Z,1.52
2023-03-29T16:13:19.803Z,1.75
2023-03-29T16:16:09.778Z,1.80
2023-03-29T16:18:57.173Z,1.65
2023-03-29T16:21:45.147Z,1.70
2023-03-29T16:24:33.704Z,1.92
2023-03-29T16:27:23.086Z,2.15
2023-03-29T16:30:11.852Z,1.77
2023-03-29T16:33:06.483Z,1.80
2023-03-29T16:35:56.277Z,1.38
2023-03-29T16:38:43.534Z,1.90
2023-03-29T16:41:31.766Z,1.83
2023-03-29T16:44:23.869Z,1.85
2023-03-29T16:47:12.390Z,2.10
2023-03-29T16:50:00.063Z,2.60
2023-03-29T16:52:52.618Z,1.98
2023-03-29T16:55:40.401Z,2.33
2023-03-29T16:58:27.882Z,2.22
2023-03-29T17:01:16.720Z,2.75
2023-03-29T17:04:04.569Z,2.60
2023-03-29T17:06:51.936Z,2.40
2023-03-29T17:09:41.708Z,2.22
2023-03-29T17:12:29.435Z,2.58
2023-03-29T17:15:17.885Z,2.17
2023-03-29T17:18:09.322Z,2.45
2023-03-29T17:20:58.845Z,2.35
2023-03-29T17:23:46.170Z,2.28
2023-03-29T17:26:33.471Z,1.95
2023-03-29T17:29:20.781Z,2.10
2023-03-29T17:32:08.502Z,2.10
2023-03-29T17:34:55.693Z,2.25
2023-03-29T17:37:45.819Z,2.13
2023-03-29T17:40:35.706Z,1.63
2023-03-29T17:43:23.448Z,1.80
2023-03-29T17:46:16.612Z,2.03
2023-03-29T17:49:06.802Z,1.95
2023-03-29T17:51:56.284Z,1.88
2023-03-29T17:54:47.018Z,1.70
2023-03-29T17:57:35.941Z,2.33
2023-03-29T18:00:24.076Z,2.40
2023-03-29T18:03:14.445Z,1.98
2023-03-29T18:06:02.301Z,2.22
2023-03-29T18:08:56.455Z,2.03
2023-03-29T18:11:43.885Z,2.80
2023-03-29T18:14:31.565Z,3.13
2023-03-29T18:17:22.277Z,2.50
2023-03-29T18:20:11.472Z,3.00
2023-03-29T18:22:58.992Z,2.55
2023-03-29T18:25:46.802Z,2.85
2023-03-29T18:28:35.353Z,3.00
2023-03-29T18:31:23.003Z,2.30
2023-03-29T18:34:10.390Z,2.40
2023-03-29T18:36:57.952Z,2.45
2023-03-29T18:39:46.012Z,2.72
2023-03-29T18:42:33.926Z,2.67
2023-03-29T18:45:26.574Z,2.38
2023-03-29T18:51:33.614Z,2.80
2023-03-29T18:54:21.332Z,2.70
2023-03-29T18:57:12.481Z,2.85
2023-03-29T19:00:00.225Z,2.50
2023-03-29T19:02:49.265Z,1.80
2023-03-29T19:05:43.414Z,2.67
2023-03-29T19:08:35.380Z,2.55
2023-03-29T19:11:23.632Z,3.03
2023-03-29T19:14:11.659Z,2.70
2023-03-29T19:17:02.550Z,3.20
2023-03-29T19:19:52.161Z,3.80
2023-03-29T19:22:40.290Z,3.08
2023-03-29T19:25:30.876Z,3.33
2023-03-29T19:28:19.751Z,3.10
2023-03-29T19:31:12.221Z,3.15
2023-03-29T19:34:00.506Z,2.25
2023-03-29T19:36:48.274Z,2.50
2023-03-29T19:39:41.336Z,3.05
2023-03-29T19:42:28.821Z,3.38
2023-03-29T19:45:16.933Z,3.35
2023-03-29T19:48:04.748Z,3.08
2023-03-29T19:50:52.636Z,4.10
2023-03-29T19:53:41.869Z,7.57
2023-03-29T19:56:31.314Z,10.73
2023-03-29T19:59:21.903Z,8.10
2023-03-29T20:02:12.444Z,8.63
2023-03-29T20:05:02.240Z,5.28
2023-03-29T20:07:54.472Z,5.65
2023-03-29T20:10:42.710Z,5.10
2023-03-29T20:13:38.117Z,4.82
2023-03-29T20:16:26.348Z,4.57
2023-03-29T20:19:19.527Z,4.18
2023-03-29T20:22:08.162Z,4.15
2023-03-29T20:24:56.391Z,2.72
2023-03-29T20:27:43.734Z,2.70
2023-03-29T20:30:36.380Z,3.30
2023-03-29T20:36:12.656Z,3.08
2023-03-29T20:39:01.539Z,3.15
2023-03-29T20:41:49.116Z,2.40
2023-03-29T20:44:37.182Z,2.55
2023-03-29T20:47:28.773Z,2.60
2023-03-29T20:50:19.587Z,2.72
2023-03-29T20:53:09.615Z,2.85
2023-03-29T20:55:57.228Z,2.72
2023-03-29T20:58:44.545Z,2.85
2023-03-29T21:01:40.631Z,2.17
2023-03-29T21:04:31.102Z,2.75
2023-03-29T21:07:20.157Z,2.80
2023-03-29T21:10:08.288Z,2.42
2023-03-29T21:13:00.184Z,2.70
2023-03-29T21:15:47.842Z,2.60
2023-03-29T21:18:41.875Z,2.30
2023-03-29T21:21:31.362Z,2.55
2023-03-29T21:24:19.311Z,2.60
2023-03-29T21:27:09.862Z,2.65
2023-03-29T21:29:57.019Z,2.35
2023-03-29T21:32:44.332Z,2.53
2023-03-29T21:35:33.460Z,2.22
2023-03-29T21:38:28.454Z,2.47
2023-03-29T21:41:16.497Z,2.60
2023-03-29T21:44:03.802Z,3.03
2023-03-29T21:46:51.464Z,2.50
2023-03-29T21:49:39.863Z,2.55
2023-03-29T21:52:27.050Z,2.75
2023-03-29T21:55:14.233Z,2.65
2023-03-29T21:58:01.380Z,2.90
2023-03-29T22:00:50.934Z,3.13
2023-03-29T22:03:38.577Z,2.60
2023-03-29T22:06:25.922Z,2.33
2023-03-29T22:09:14.169Z,2.45
2023-03-29T22:12:01.660Z,2.35
2023-03-29T22:14:51.573Z,2.67
2023-03-29T22:17:38.915Z,2.97
2023-03-29T22:20:26.153Z,3.25
2023-03-29T22:23:13.397Z,2.47
2023-03-29T22:26:06.909Z,2.35
2023-03-29T22:28:54.787Z,2.63
2023-03-29T22:31:46.526Z,2.60
2023-03-29T22:34:37.282Z,3.00
2023-03-29T22:37:25.736Z,3.40
2023-03-29T22:40:13.928Z,2.72
2023-03-29T22:43:02.712Z,2.50
2023-03-29T22:45:51.985Z,2.40
2023-03-29T22:48:39.836Z,3.35
2023-03-29T22:51:27.643Z,2.72
2023-03-29T22:54:14.889Z,3.15
2023-03-29T22:57:02.100Z,3.03
2023-03-29T22:59:49.375Z,2.90
2023-03-29T23:02:37.330Z,2.55
2023-03-29T23:05:24.686Z,3.08
2023-03-29T23:08:11.828Z,3.22
2023-03-29T23:11:02.130Z,2.42
2023-03-29T23:13:49.604Z,2.78
2023-03-29T23:16:37.493Z,2.80
2023-03-29T23:19:25.102Z,2.78
2023-03-29T23:22:12.261Z,4.13
2023-03-29T23:24:59.816Z,3.00
2023-03-29T23:27:47.124Z,2.88
2023-03-29T23:30:37.193Z,3.33
2023-03-29T23:33:25.872Z,2.22
2023-03-29T23:36:18.044Z,2.83
2023-03-29T23:39:07.938Z,2.92
2023-03-29T23:41:55.109Z,2.70
2023-03-29T23:44:42.409Z,2.17
2023-03-29T23:47:31.750Z,2.95
2023-03-29T23:50:19.667Z,3.10
2023-03-29T23:53:06.830Z,3.95
2023-03-29T23:55:56.602Z,3.63
2023-03-29T23:58:44.516Z,3.30
